sensor_id;sensor_type;location;lat;lon;timestamp;temperature;humidity
8214;DHT22;4148;47.974;7.824;2024-01-15T00:02:21;-1.40;1.00
8214;DHT22;4148;47.974;7.824;2024-01-15T00:04:49;-1.50;1.00
8214;DHT22;4148;47.974;7.824;2024-01-15T00:07:17;-1.50;1.00
8214;DHT22;4148;47.974;7.824;2024-01-15T00:09:45;-1.50;8.50
8214;DHT22;4148;47.974;7.824;2024-01-15T00:12:13;-1.50;99.90
8214;DHT22;4148;47.974;7.824;2024-01-15T00:14:41;-1.60;99.90
8214;DHT22;4148;47.974;7.824;2024-01-15T00:17:08;-1.60;1.00
8214;DHT22;4148;47.974;7.824;2024-01-15T00:19:38;-1.70;99.90
8214;DHT22;4148;47.974;7.824;2024-01-15T00:22:06;-1.60;99.90
8214;DHT22;4148;47.974;7.824;2024-01-15T00:24:34;-1.50;99.90
8214;DHT22;4148;47.974;7.824;2024-01-15T00:27:02;-1.60;1.00
8214;DHT22;4148;47.974;7.824;2024-01-15T00:29:30;-1.50;1.00
8214;DHT22;4148;47.974;7.824;2024-01-15T00:31:57;-1.50;1.00
8214;DHT22;4148;47.974;7.824;2024-01-15T00:34:25;-1.50;26.20
8214;DHT22;4148;47.974;7.824;2024-01-15T00:36:55;-1.40;99.90
8214;DHT22;4148;47.974;7.824;2024-01-15T00:39:22;-1.50;99.90
8214;DHT22;4148;47.974;7.824;2024-01-15T00:41:50;-1.40;1.00
8214;DHT22;4148;47.974;7.824;2024-01-15T00:44:18;-1.40;17.60
8214;DHT22;4148;47.974;7.824;2024-01-15T00:46:46;-1.40;99.90
8214;DHT22;4148;47.974;7.824;2024-01-15T00:49:14;-1.40;99.90
8214;DHT22;4148;47.974;7.824;2024-01-15T00:51:42;-1.30;99.90
8214;DHT22;4148;47.974;7.824;2024-01-15T00:54:11;-1.30;99.90
8214;DHT22;4148;47.974;7.824;2024-01-15T00:56:39;-1.20;93.40
8214;DHT22;4148;47.974;7.824;2024-01-15T00:59:07;-1.20;99.90
8214;DHT22;4148;47.974;7.824;2024-01-15T01:01:37;-1.20;67.30
8214;DHT22;4148;47.974;7.824;2024-01-15T01:04:05;-1.20;1.00
8214;DHT22;4148;47.974;7.824;2024-01-15T01:06:33;-1.20;1.00
8214;DHT22;4148;47.974;7.824;2024-01-15T01:09:01;-1.20;11.40
8214;DHT22;4148;47.974;7.824;2024-01-15T01:11:30;-1.30;99.90
8214;DHT22;4148;47.974;7.824;2024-01-15T01:13:58;-1.30;21.70
8214;DHT22;4148;47.974;7.824;2024-01-15T01:16:27;-1.40;99.40
8214;DHT22;4148;47.974;7.824;2024-01-15T01:18:55;-1.40;99.90
8214;DHT22;4148;47.974;7.824;2024-01-15T01:21:23;-1.30;99.90
8214;DHT22;4148;47.974;7.824;2024-01-15T01:23:51;-1.30;96.50
8214;DHT22;4148;47.974;7.824;2024-01-15T01:26:19;-1.30;1.00
8214;DHT22;4148;47.974;7.824;2024-01-15T01:28:48;-1.40;99.90
8214;DHT22;4148;47.974;7.824;2024-01-15T01:31:16;-1.40;61.10
8214;DHT22;4148;47.974;7.824;2024-01-15T01:33:44;-1.30;1.00
8214;DHT22;4148;47.974;7.824;2024-01-15T01:36:12;-1.30;1.00
8214;DHT22;4148;47.974;7.824;2024-01-15T01:38:40;-1.40;1.00
8214;DHT22;4148;47.974;7.824;2024-01-15T01:41:08;-1.40;1.00
8214;DHT22;4148;47.974;7.824;2024-01-15T01:43:36;-1.40;1.00
8214;DHT22;4148;47.974;7.824;2024-01-15T01:46:06;-1.40;1.00
8214;DHT22;4148;47.974;7.824;2024-01-15T01:48:35;-1.40;1.00
8214;DHT22;4148;47.974;7.824;2024-01-15T01:51:04;-1.30;25.80
8214;DHT22;4148;47.974;7.824;2024-01-15T01:53:34;-1.20;99.90
8214;DHT22;4148;47.974;7.824;2024-01-15T01:56:02;-1.20;40.20
8214;DHT22;4148;47.974;7.824;2024-01-15T01:58:32;-1.10;1.00
8214;DHT22;4148;47.974;7.824;2024-01-15T02:01:00;-1.10;99.90
8214;DHT22;4148;47.974;7.824;2024-01-15T02:03:30;-1.00;99.90
8214;DHT22;4148;47.974;7.824;2024-01-15T02:05:59;-1.00;99.90
8214;DHT22;4148;47.974;7.824;2024-01-15T02:08:28;-1.00;99.90
8214;DHT22;4148;47.974;7.824;2024-01-15T02:10:56;-1.10;15.60
8214;DHT22;4148;47.974;7.824;2024-01-15T02:13:23;-1.00;99.90
8214;DHT22;4148;47.974;7.824;2024-01-15T02:15:51;-0.80;99.90
8214;DHT22;4148;47.974;7.824;2024-01-15T02:18:19;-0.90;1.00
8214;DHT22;4148;47.974;7.824;2024-01-15T02:20:49;-0.90;1.00
8214;DHT22;4148;47.974;7.824;2024-01-15T02:23:18;-0.90;1.00
8214;DHT22;4148;47.974;7.824;2024-01-15T02:25:47;-1.00;99.90
8214;DHT22;4148;47.974;7.824;2024-01-15T02:28:16;-1.00;99.90
8214;DHT22;4148;47.974;7.824;2024-01-15T02:30:44;-1.00;99.90
8214;DHT22;4148;47.974;7.824;2024-01-15T02:33:13;-1.00;1.00
8214;DHT22;4148;47.974;7.824;2024-01-15T02:35:41;-1.00;99.90
8214;DHT22;4148;47.974;7.824;2024-01-15T02:38:09;-1.00;1.00
8214;DHT22;4148;47.974;7.824;2024-01-15T02:40:38;-0.90;10.80
8214;DHT22;4148;47.974;7.824;2024-01-15T02:43:06;-0.90;32.70
8214;DHT22;4148;47.974;7.824;2024-01-15T02:45:34;-0.90;1.00
8214;DHT22;4148;47.974;7.824;2024-01-15T02:48:02;-0.90;1.00
8214;DHT22;4148;47.974;7.824;2024-01-15T02:50:30;-0.80;1.00
8214;DHT22;4148;47.974;7.824;2024-01-15T02:52:58;-0.80;1.00
8214;DHT22;4148;47.974;7.824;2024-01-15T02:55:25;-0.90;1.00
8214;DHT22;4148;47.974;7.824;2024-01-15T02:57:57;-0.90;1.00
8214;DHT22;4148;47.974;7.824;2024-01-15T03:00:25;-1.00;1.00
8214;DHT22;4148;47.974;7.824;2024-01-15T03:02:54;-0.80;99.90
8214;DHT22;4148;47.974;7.824;2024-01-15T03:05:22;-0.80;1.00
8214;DHT22;4148;47.974;7.824;2024-01-15T03:07:50;-0.80;99.90
8214;DHT22;4148;47.974;7.824;2024-01-15T03:10:17;-0.90;1.00
8214;DHT22;4148;47.974;7.824;2024-01-15T03:12:45;-0.90;1.00
8214;DHT22;4148;47.974;7.824;2024-01-15T03:15:15;-1.00;75.70
8214;DHT22;4148;47.974;7.824;2024-01-15T03:17:43;-0.90;1.00
8214;DHT22;4148;47.974;7.824;2024-01-15T03:20:11;-0.80;1.00
8214;DHT22;4148;47.974;7.824;2024-01-15T03:22:39;-0.80;1.00
8214;DHT22;4148;47.974;7.824;2024-01-15T03:25:07;-0.80;99.90
8214;DHT22;4148;47.974;7.824;2024-01-15T03:27:35;-0.90;1.00
8214;DHT22;4148;47.974;7.824;2024-01-15T03:30:04;-0.90;1.00
8214;DHT22;4148;47.974;7.824;2024-01-15T03:32:33;-1.00;51.90
8214;DHT22;4148;47.974;7.824;2024-01-15T03:35:01;-0.90;75.80
8214;DHT22;4148;47.974;7.824;2024-01-15T03:37:29;-0.80;99.90
8214;DHT22;4148;47.974;7.824;2024-01-15T03:39:57;-0.80;99.90
8214;DHT22;4148;47.974;7.824;2024-01-15T03:42:25;-0.80;1.00
8214;DHT22;4148;47.974;7.824;2024-01-15T03:44:53;-0.90;1.00
8214;DHT22;4148;47.974;7.824;2024-01-15T03:47:21;-0.90;1.00
8214;DHT22;4148;47.974;7.824;2024-01-15T03:49:50;-0.90;1.00
8214;DHT22;4148;47.974;7.824;2024-01-15T03:52:18;-0.90;99.90
8214;DHT22;4148;47.974;7.824;2024-01-15T03:54:46;-0.80;34.00
8214;DHT22;4148;47.974;7.824;2024-01-15T03:57:14;-0.90;99.90
8214;DHT22;4148;47.974;7.824;2024-01-15T03:59:42;-0.80;99.90
8214;DHT22;4148;47.974;7.824;2024-01-15T04:02:10;-0.90;99.90
8214;DHT22;4148;47.974;7.824;2024-01-15T04:04:40;-0.80;99.90
8214;DHT22;4148;47.974;7.824;2024-01-15T04:07:10;-0.90;99.90
8214;DHT22;4148;47.974;7.824;2024-01-15T04:09:38;-0.90;99.90
8214;DHT22;4148;47.974;7.824;2024-01-15T04:12:06;-0.80;99.90
8214;DHT22;4148;47.974;7.824;2024-01-15T04:14:34;-0.70;99.90
8214;DHT22;4148;47.974;7.824;2024-01-15T04:17:02;-0.70;1.00
8214;DHT22;4148;47.974;7.824;2024-01-15T04:19:30;-0.70;99.90
8214;DHT22;4148;47.974;7.824;2024-01-15T04:21:58;-0.70;99.90
8214;DHT22;4148;47.974;7.824;2024-01-15T04:24:27;-0.80;99.90
8214;DHT22;4148;47.974;7.824;2024-01-15T04:26:55;-0.90;99.90
8214;DHT22;4148;47.974;7.824;2024-01-15T04:29:23;-0.90;99.90
8214;DHT22;4148;47.974;7.824;2024-01-15T04:31:52;-0.90;99.90
8214;DHT22;4148;47.974;7.824;2024-01-15T04:34:20;-0.80;99.90
8214;DHT22;4148;47.974;7.824;2024-01-15T04:36:48;-0.80;99.90
8214;DHT22;4148;47.974;7.824;2024-01-15T04:39:16;-0.80;99.90
8214;DHT22;4148;47.974;7.824;2024-01-15T04:41:46;-0.70;99.90
8214;DHT22;4148;47.974;7.824;2024-01-15T04:44:13;-0.70;99.90
8214;DHT22;4148;47.974;7.824;2024-01-15T04:46:41;-0.70;99.90
8214;DHT22;4148;47.974;7.824;2024-01-15T04:49:10;-0.70;99.90
8214;DHT22;4148;47.974;7.824;2024-01-15T04:51:38;-0.70;99.90
8214;DHT22;4148;47.974;7.824;2024-01-15T04:54:06;-0.60;99.90
8214;DHT22;4148;47.974;7.824;2024-01-15T04:56:34;-0.70;99.90
8214;DHT22;4148;47.974;7.824;2024-01-15T04:59:03;-0.70;99.90
8214;DHT22;4148;47.974;7.824;2024-01-15T05:01:31;-0.70;99.90
8214;DHT22;4148;47.974;7.824;2024-01-15T05:04:00;-0.70;99.90
8214;DHT22;4148;47.974;7.824;2024-01-15T05:06:28;-0.70;99.90
8214;DHT22;4148;47.974;7.824;2024-01-15T05:08:55;-0.80;99.90
8214;DHT22;4148;47.974;7.824;2024-01-15T05:11:23;-0.80;99.90
8214;DHT22;4148;47.974;7.824;2024-01-15T05:13:51;-0.70;99.90
8214;DHT22;4148;47.974;7.824;2024-01-15T05:16:20;-0.90;99.90
8214;DHT22;4148;47.974;7.824;2024-01-15T05:18:48;-0.90;99.90
8214;DHT22;4148;47.974;7.824;2024-01-15T05:21:16;-0.80;99.90
8214;DHT22;4148;47.974;7.824;2024-01-15T05:23:44;-0.90;99.90
8214;DHT22;4148;47.974;7.824;2024-01-15T05:26:12;-0.90;99.90
8214;DHT22;4148;47.974;7.824;2024-01-15T05:28:41;-0.90;99.90
8214;DHT22;4148;47.974;7.824;2024-01-15T05:31:09;-0.80;1.00
8214;DHT22;4148;47.974;7.824;2024-01-15T05:33:39;-0.70;99.90
8214;DHT22;4148;47.974;7.824;2024-01-15T05:36:07;-0.70;99.90
8214;DHT22;4148;47.974;7.824;2024-01-15T05:38:35;-0.70;99.90
8214;DHT22;4148;47.974;7.824;2024-01-15T05:41:03;-0.60;99.90
8214;DHT22;4148;47.974;7.824;2024-01-15T05:43:31;-0.50;99.90
8214;DHT22;4148;47.974;7.824;2024-01-15T05:45:59;-0.50;99.90
8214;DHT22;4148;47.974;7.824;2024-01-15T05:48:26;-0.40;99.90
8214;DHT22;4148;47.974;7.824;2024-01-15T05:50:56;-0.30;99.90
8214;DHT22;4148;47.974;7.824;2024-01-15T05:53:24;-0.40;99.90
8214;DHT22;4148;47.974;7.824;2024-01-15T05:55:52;-0.40;99.90
8214;DHT22;4148;47.974;7.824;2024-01-15T05:58:20;-0.40;99.90
8214;DHT22;4148;47.974;7.824;2024-01-15T06:00:48;-0.30;99.90
8214;DHT22;4148;47.974;7.824;2024-01-15T06:03:16;-0.30;99.90
8214;DHT22;4148;47.974;7.824;2024-01-15T06:05:44;-0.20;96.60
8214;DHT22;4148;47.974;7.824;2024-01-15T06:08:14;-0.20;46.90
8214;DHT22;4148;47.974;7.824;2024-01-15T06:10:42;-0.10;1.00
8214;DHT22;4148;47.974;7.824;2024-01-15T06:13:10;-0.10;1.00
8214;DHT22;4148;47.974;7.824;2024-01-15T06:15:37;-0.10;1.00
8214;DHT22;4148;47.974;7.824;2024-01-15T06:18:06;-0.10;1.00
8214;DHT22;4148;47.974;7.824;2024-01-15T06:20:34;-0.10;1.00
8214;DHT22;4148;47.974;7.824;2024-01-15T06:23:02;0.00;1.00
8214;DHT22;4148;47.974;7.824;2024-01-15T06:25:31;0.00;99.90
8214;DHT22;4148;47.974;7.824;2024-01-15T06:27:59;0.00;99.90
8214;DHT22;4148;47.974;7.824;2024-01-15T06:30:27;0.00;99.90
8214;DHT22;4148;47.974;7.824;2024-01-15T06:32:56;0.10;15.80
8214;DHT22;4148;47.974;7.824;2024-01-15T06:35:24;0.10;99.90
8214;DHT22;4148;47.974;7.824;2024-01-15T06:37:52;0.10;1.00
8214;DHT22;4148;47.974;7.824;2024-01-15T06:40:21;0.20;99.90
8214;DHT22;4148;47.974;7.824;2024-01-15T06:42:50;0.20;68.60
8214;DHT22;4148;47.974;7.824;2024-01-15T06:45:18;0.30;99.90
8214;DHT22;4148;47.974;7.824;2024-01-15T06:47:46;0.20;99.90
8214;DHT22;4148;47.974;7.824;2024-01-15T06:50:14;0.20;1.00
8214;DHT22;4148;47.974;7.824;2024-01-15T06:52:42;0.30;1.00
8214;DHT22;4148;47.974;7.824;2024-01-15T06:55:09;0.30;1.00
8214;DHT22;4148;47.974;7.824;2024-01-15T06:57:37;0.40;99.90
8214;DHT22;4148;47.974;7.824;2024-01-15T07:00:07;0.40;99.90
8214;DHT22;4148;47.974;7.824;2024-01-15T07:02:36;0.40;99.90
8214;DHT22;4148;47.974;7.824;2024-01-15T07:05:04;0.40;99.90
8214;DHT22;4148;47.974;7.824;2024-01-15T07:07:33;0.40;99.90
8214;DHT22;4148;47.974;7.824;2024-01-15T07:10:00;0.40;1.00
8214;DHT22;4148;47.974;7.824;2024-01-15T07:12:30;0.40;5.30
8214;DHT22;4148;47.974;7.824;2024-01-15T07:14:58;0.40;1.00
8214;DHT22;4148;47.974;7.824;2024-01-15T07:17:27;0.40;1.00
8214;DHT22;4148;47.974;7.824;2024-01-15T07:19:55;0.40;1.00
8214;DHT22;4148;47.974;7.824;2024-01-15T07:22:23;0.40;1.00
8214;DHT22;4148;47.974;7.824;2024-01-15T07:24:50;0.50;99.90
8214;DHT22;4148;47.974;7.824;2024-01-15T07:27:18;0.50;99.90
8214;DHT22;4148;47.974;7.824;2024-01-15T07:29:46;0.40;1.00
8214;DHT22;4148;47.974;7.824;2024-01-15T07:32:15;0.50;99.90
8214;DHT22;4148;47.974;7.824;2024-01-15T07:34:44;0.50;99.90
8214;DHT22;4148;47.974;7.824;2024-01-15T07:37:12;0.60;38.50
8214;DHT22;4148;47.974;7.824;2024-01-15T07:39:40;0.60;1.00
8214;DHT22;4148;47.974;7.824;2024-01-15T07:42:11;0.60;1.00
8214;DHT22;4148;47.974;7.824;2024-01-15T07:44:39;0.70;1.00
8214;DHT22;4148;47.974;7.824;2024-01-15T07:47:07;0.70;1.00
8214;DHT22;4148;47.974;7.824;2024-01-15T07:49:36;0.70;99.90
8214;DHT22;4148;47.974;7.824;2024-01-15T07:52:05;0.70;99.90
8214;DHT22;4148;47.974;7.824;2024-01-15T07:54:33;0.70;1.00
8214;DHT22;4148;47.974;7.824;2024-01-15T07:57:02;0.80;99.90
8214;DHT22;4148;47.974;7.824;2024-01-15T07:59:30;0.80;99.90
8214;DHT22;4148;47.974;7.824;2024-01-15T08:01:59;0.90;1.00
8214;DHT22;4148;47.974;7.824;2024-01-15T08:04:27;0.90;1.00
8214;DHT22;4148;47.974;7.824;2024-01-15T08:06:55;0.90;1.00
8214;DHT22;4148;47.974;7.824;2024-01-15T08:09:26;0.90;1.00
8214;DHT22;4148;47.974;7.824;2024-01-15T08:11:53;1.10;99.90
8214;DHT22;4148;47.974;7.824;2024-01-15T08:14:21;1.10;99.90
8214;DHT22;4148;47.974;7.824;2024-01-15T08:16:49;1.20;99.90
8214;DHT22;4148;47.974;7.824;2024-01-15T08:19:17;1.20;99.90
8214;DHT22;4148;47.974;7.824;2024-01-15T08:21:46;1.20;99.90
8214;DHT22;4148;47.974;7.824;2024-01-15T08:24:15;1.20;99.90
8214;DHT22;4148;47.974;7.824;2024-01-15T08:26:44;1.30;99.90
8214;DHT22;4148;47.974;7.824;2024-01-15T08:29:12;1.30;99.90
8214;DHT22;4148;47.974;7.824;2024-01-15T08:31:40;1.30;99.90
8214;DHT22;4148;47.974;7.824;2024-01-15T08:34:08;1.30;99.90
8214;DHT22;4148;47.974;7.824;2024-01-15T08:36:36;1.30;99.90
8214;DHT22;4148;47.974;7.824;2024-01-15T08:39:04;1.40;99.90
8214;DHT22;4148;47.974;7.824;2024-01-15T08:41:33;1.40;99.90
8214;DHT22;4148;47.974;7.824;2024-01-15T08:44:03;1.40;99.90
8214;DHT22;4148;47.974;7.824;2024-01-15T08:46:30;1.40;99.90
8214;DHT22;4148;47.974;7.824;2024-01-15T08:48:58;1.30;99.90
8214;DHT22;4148;47.974;7.824;2024-01-15T08:51:26;1.40;99.90
8214;DHT22;4148;47.974;7.824;2024-01-15T08:53:55;1.40;1.00
8214;DHT22;4148;47.974;7.824;2024-01-15T08:56:23;1.40;1.00
8214;DHT22;4148;47.974;7.824;2024-01-15T08:58:50;1.40;1.00
8214;DHT22;4148;47.974;7.824;2024-01-15T09:01:20;1.40;1.00
8214;DHT22;4148;47.974;7.824;2024-01-15T09:03:48;1.40;1.00
8214;DHT22;4148;47.974;7.824;2024-01-15T09:06:16;1.50;1.00
8214;DHT22;4148;47.974;7.824;2024-01-15T09:08:45;1.50;1.00
8214;DHT22;4148;47.974;7.824;2024-01-15T09:11:12;1.40;1.00
8214;DHT22;4148;47.974;7.824;2024-01-15T09:13:40;1.50;99.90
8214;DHT22;4148;47.974;7.824;2024-01-15T09:16:08;1.50;99.90
8214;DHT22;4148;47.974;7.824;2024-01-15T09:18:37;1.40;99.90
8214;DHT22;4148;47.974;7.824;2024-01-15T09:21:05;1.50;99.90
8214;DHT22;4148;47.974;7.824;2024-01-15T09:23:33;1.50;99.90
8214;DHT22;4148;47.974;7.824;2024-01-15T09:26:02;1.60;99.90
8214;DHT22;4148;47.974;7.824;2024-01-15T09:28:30;1.70;99.90
8214;DHT22;4148;47.974;7.824;2024-01-15T09:30:57;1.80;99.90
8214;DHT22;4148;47.974;7.824;2024-01-15T09:33:26;1.70;99.90
8214;DHT22;4148;47.974;7.824;2024-01-15T09:35:55;1.70;99.90
8214;DHT22;4148;47.974;7.824;2024-01-15T09:38:23;1.90;99.90
8214;DHT22;4148;47.974;7.824;2024-01-15T09:40:51;2.00;66.60
8214;DHT22;4148;47.974;7.824;2024-01-15T09:43:20;2.10;26.40
8214;DHT22;4148;47.974;7.824;2024-01-15T09:45:49;2.20;4.30
8214;DHT22;4148;47.974;7.824;2024-01-15T09:48:17;2.30;1.00
8214;DHT22;4148;47.974;7.824;2024-01-15T09:50:46;2.40;1.00
8214;DHT22;4148;47.974;7.824;2024-01-15T09:53:15;2.50;1.00
8214;DHT22;4148;47.974;7.824;2024-01-15T09:55:43;2.60;1.00
8214;DHT22;4148;47.974;7.824;2024-01-15T09:58:11;2.70;1.00
8214;DHT22;4148;47.974;7.824;2024-01-15T10:00:39;2.70;1.00
8214;DHT22;4148;47.974;7.824;2024-01-15T10:03:10;2.80;1.00
8214;DHT22;4148;47.974;7.824;2024-01-15T10:05:39;2.80;1.00
8214;DHT22;4148;47.974;7.824;2024-01-15T10:08:07;2.80;1.00
8214;DHT22;4148;47.974;7.824;2024-01-15T10:10:36;2.90;1.00
8214;DHT22;4148;47.974;7.824;2024-01-15T10:13:04;2.90;1.00
8214;DHT22;4148;47.974;7.824;2024-01-15T10:15:34;2.90;1.00
8214;DHT22;4148;47.974;7.824;2024-01-15T10:18:04;2.80;1.00
8214;DHT22;4148;47.974;7.824;2024-01-15T10:20:32;2.80;1.00
8214;DHT22;4148;47.974;7.824;2024-01-15T10:23:00;2.80;1.00
8214;DHT22;4148;47.974;7.824;2024-01-15T10:25:29;2.80;1.00
8214;DHT22;4148;47.974;7.824;2024-01-15T10:28:02;2.90;1.00
8214;DHT22;4148;47.974;7.824;2024-01-15T10:30:32;2.90;1.00
8214;DHT22;4148;47.974;7.824;2024-01-15T10:33:01;2.80;1.00
8214;DHT22;4148;47.974;7.824;2024-01-15T10:35:31;2.70;1.00
8214;DHT22;4148;47.974;7.824;2024-01-15T10:37:59;2.70;1.00
8214;DHT22;4148;47.974;7.824;2024-01-15T10:40:27;2.70;1.00
8214;DHT22;4148;47.974;7.824;2024-01-15T10:42:56;2.70;1.00
8214;DHT22;4148;47.974;7.824;2024-01-15T10:45:25;2.70;1.00
8214;DHT22;4148;47.974;7.824;2024-01-15T10:47:53;2.80;1.00
8214;DHT22;4148;47.974;7.824;2024-01-15T10:50:25;2.80;1.00
8214;DHT22;4148;47.974;7.824;2024-01-15T10:52:53;2.70;1.00
8214;DHT22;4148;47.974;7.824;2024-01-15T10:55:23;2.60;1.00
8214;DHT22;4148;47.974;7.824;2024-01-15T10:57:52;2.60;1.00
8214;DHT22;4148;47.974;7.824;2024-01-15T11:00:21;2.60;1.00
8214;DHT22;4148;47.974;7.824;2024-01-15T11:02:54;2.70;1.00
8214;DHT22;4148;47.974;7.824;2024-01-15T11:05:22;2.60;1.00
8214;DHT22;4148;47.974;7.824;2024-01-15T11:07:50;2.60;1.00
8214;DHT22;4148;47.974;7.824;2024-01-15T11:10:41;2.60;1.00
8214;DHT22;4148;47.974;7.824;2024-01-15T11:13:13;2.60;1.00
8214;DHT22;4148;47.974;7.824;2024-01-15T11:15:57;2.50;1.00
8214;DHT22;4148;47.974;7.824;2024-01-15T11:18:28;2.60;1.00
8214;DHT22;4148;47.974;7.824;2024-01-15T11:21:22;2.60;1.00
8214;DHT22;4148;47.974;7.824;2024-01-15T11:23:53;2.50;1.00
8214;DHT22;4148;47.974;7.824;2024-01-15T11:26:35;2.60;1.00
8214;DHT22;4148;47.974;7.824;2024-01-15T11:29:04;2.50;1.00
8214;DHT22;4148;47.974;7.824;2024-01-15T11:31:59;2.50;1.00
8214;DHT22;4148;47.974;7.824;2024-01-15T11:34:58;2.50;1.00
8214;DHT22;4148;47.974;7.824;2024-01-15T11:37:29;2.40;1.00
8214;DHT22;4148;47.974;7.824;2024-01-15T11:40:18;2.40;1.00
8214;DHT22;4148;47.974;7.824;2024-01-15T11:42:46;2.30;1.00
8214;DHT22;4148;47.974;7.824;2024-01-15T11:45:19;2.30;1.00
8214;DHT22;4148;47.974;7.824;2024-01-15T11:48:11;2.30;1.00
8214;DHT22;4148;47.974;7.824;2024-01-15T11:50:42;2.40;1.00
8214;DHT22;4148;47.974;7.824;2024-01-15T11:53:16;2.30;1.00
8214;DHT22;4148;47.974;7.824;2024-01-15T11:55:45;2.40;1.00
8214;DHT22;4148;47.974;7.824;2024-01-15T11:58:15;2.50;1.00
8214;DHT22;4148;47.974;7.824;2024-01-15T12:00:44;2.40;1.00
8214;DHT22;4148;47.974;7.824;2024-01-15T12:03:13;2.40;1.00
8214;DHT22;4148;47.974;7.824;2024-01-15T12:05:42;2.40;1.00
8214;DHT22;4148;47.974;7.824;2024-01-15T12:08:10;2.40;1.00
8214;DHT22;4148;47.974;7.824;2024-01-15T12:10:39;2.40;1.00
8214;DHT22;4148;47.974;7.824;2024-01-15T12:13:10;2.40;1.00
8214;DHT22;4148;47.974;7.824;2024-01-15T12:15:39;2.40;1.00
8214;DHT22;4148;47.974;7.824;2024-01-15T12:18:11;2.40;2.10
8214;DHT22;4148;47.974;7.824;2024-01-15T12:20:40;2.50;1.00
8214;DHT22;4148;47.974;7.824;2024-01-15T12:23:10;2.50;1.00
8214;DHT22;4148;47.974;7.824;2024-01-15T12:25:39;2.50;1.00
8214;DHT22;4148;47.974;7.824;2024-01-15T12:28:07;2.50;1.00
8214;DHT22;4148;47.974;7.824;2024-01-15T12:30:35;2.40;1.00
8214;DHT22;4148;47.974;7.824;2024-01-15T12:33:05;2.50;1.00
8214;DHT22;4148;47.974;7.824;2024-01-15T12:35:34;2.60;1.00
8214;DHT22;4148;47.974;7.824;2024-01-15T12:38:03;2.70;1.00
8214;DHT22;4148;47.974;7.824;2024-01-15T12:40:33;2.60;1.00
8214;DHT22;4148;47.974;7.824;2024-01-15T12:43:05;2.60;1.00
8214;DHT22;4148;47.974;7.824;2024-01-15T12:45:33;2.60;1.00
8214;DHT22;4148;47.974;7.824;2024-01-15T12:48:03;2.60;1.00
8214;DHT22;4148;47.974;7.824;2024-01-15T12:50:33;2.60;1.00
8214;DHT22;4148;47.974;7.824;2024-01-15T12:53:01;2.50;1.00
8214;DHT22;4148;47.974;7.824;2024-01-15T12:55:29;2.50;1.00
8214;DHT22;4148;47.974;7.824;2024-01-15T12:57:59;2.50;1.00
8214;DHT22;4148;47.974;7.824;2024-01-15T13:00:27;2.50;1.00
8214;DHT22;4148;47.974;7.824;2024-01-15T13:02:55;2.60;1.00
8214;DHT22;4148;47.974;7.824;2024-01-15T13:05:26;2.60;1.00
8214;DHT22;4148;47.974;7.824;2024-01-15T13:07:55;2.60;1.00
8214;DHT22;4148;47.974;7.824;2024-01-15T13:10:23;2.60;1.00
8214;DHT22;4148;47.974;7.824;2024-01-15T13:12:52;2.70;1.00
8214;DHT22;4148;47.974;7.824;2024-01-15T13:15:21;2.60;1.00
8214;DHT22;4148;47.974;7.824;2024-01-15T13:17:49;2.70;1.00
8214;DHT22;4148;47.974;7.824;2024-01-15T13:20:17;2.70;1.00
8214;DHT22;4148;47.974;7.824;2024-01-15T13:22:45;2.70;1.00
8214;DHT22;4148;47.974;7.824;2024-01-15T13:25:13;2.70;1.00
8214;DHT22;4148;47.974;7.824;2024-01-15T13:27:43;2.80;1.00
8214;DHT22;4148;47.974;7.824;2024-01-15T13:30:12;2.70;1.00
8214;DHT22;4148;47.974;7.824;2024-01-15T13:32:41;2.60;1.00
8214;DHT22;4148;47.974;7.824;2024-01-15T13:35:09;2.70;1.00
8214;DHT22;4148;47.974;7.824;2024-01-15T13:37:40;2.50;1.00
8214;DHT22;4148;47.974;7.824;2024-01-15T13:40:09;2.50;1.00
8214;DHT22;4148;47.974;7.824;2024-01-15T13:42:44;2.40;1.00
8214;DHT22;4148;47.974;7.824;2024-01-15T13:45:12;2.40;4.00
8214;DHT22;4148;47.974;7.824;2024-01-15T13:47:43;2.50;5.40
8214;DHT22;4148;47.974;7.824;2024-01-15T13:50:11;2.40;99.90
8214;DHT22;4148;47.974;7.824;2024-01-15T13:52:39;2.40;79.70
8214;DHT22;4148;47.974;7.824;2024-01-15T13:55:08;2.40;64.50
8214;DHT22;4148;47.974;7.824;2024-01-15T13:57:36;2.40;99.90
8214;DHT22;4148;47.974;7.824;2024-01-15T14:00:05;2.30;87.30
8214;DHT22;4148;47.974;7.824;2024-01-15T14:02:38;2.30;99.90
8214;DHT22;4148;47.974;7.824;2024-01-15T14:05:07;2.30;99.90
8214;DHT22;4148;47.974;7.824;2024-01-15T14:07:35;2.30;99.90
8214;DHT22;4148;47.974;7.824;2024-01-15T14:10:04;2.20;99.90
8214;DHT22;4148;47.974;7.824;2024-01-15T14:12:32;2.20;99.90
8214;DHT22;4148;47.974;7.824;2024-01-15T14:15:01;2.30;99.90
8214;DHT22;4148;47.974;7.824;2024-01-15T14:17:29;2.20;99.90
8214;DHT22;4148;47.974;7.824;2024-01-15T14:19:57;2.20;99.90
8214;DHT22;4148;47.974;7.824;2024-01-15T14:22:26;2.10;99.90
8214;DHT22;4148;47.974;7.824;2024-01-15T14:24:54;2.20;99.90
8214;DHT22;4148;47.974;7.824;2024-01-15T14:27:22;2.10;99.90
8214;DHT22;4148;47.974;7.824;2024-01-15T14:29:50;2.10;99.90
8214;DHT22;4148;47.974;7.824;2024-01-15T14:32:18;2.10;1.00
8214;DHT22;4148;47.974;7.824;2024-01-15T14:34:46;2.00;99.90
8214;DHT22;4148;47.974;7.824;2024-01-15T14:37:14;2.00;52.10
8214;DHT22;4148;47.974;7.824;2024-01-15T14:39:44;2.00;1.00
8214;DHT22;4148;47.974;7.824;2024-01-15T14:42:12;2.10;1.00
8214;DHT22;4148;47.974;7.824;2024-01-15T14:44:40;2.00;1.00
8214;DHT22;4148;47.974;7.824;2024-01-15T14:47:08;1.90;63.50
8214;DHT22;4148;47.974;7.824;2024-01-15T14:49:35;2.00;1.00
8214;DHT22;4148;47.974;7.824;2024-01-15T14:52:04;2.00;1.00
8214;DHT22;4148;47.974;7.824;2024-01-15T14:54:33;2.00;1.00
8214;DHT22;4148;47.974;7.824;2024-01-15T14:57:03;1.90;1.00
8214;DHT22;4148;47.974;7.824;2024-01-15T14:59:31;1.90;20.80
8214;DHT22;4148;47.974;7.824;2024-01-15T15:01:59;2.00;1.00
8214;DHT22;4148;47.974;7.824;2024-01-15T15:04:27;2.00;1.00
8214;DHT22;4148;47.974;7.824;2024-01-15T15:06:55;2.00;98.80
8214;DHT22;4148;47.974;7.824;2024-01-15T15:09:23;1.90;92.70
8214;DHT22;4148;47.974;7.824;2024-01-15T15:11:52;2.00;32.60
8214;DHT22;4148;47.974;7.824;2024-01-15T15:14:21;1.90;1.00
8214;DHT22;4148;47.974;7.824;2024-01-15T15:16:49;1.90;99.90
8214;DHT22;4148;47.974;7.824;2024-01-15T15:19:19;1.80;99.90
8214;DHT22;4148;47.974;7.824;2024-01-15T15:21:47;1.80;99.90
8214;DHT22;4148;47.974;7.824;2024-01-15T15:24:15;1.90;10.90
8214;DHT22;4148;47.974;7.824;2024-01-15T15:26:43;1.80;99.90
8214;DHT22;4148;47.974;7.824;2024-01-15T15:29:11;1.70;99.90
8214;DHT22;4148;47.974;7.824;2024-01-15T15:31:40;1.70;1.00
8214;DHT22;4148;47.974;7.824;2024-01-15T15:34:08;1.80;1.00
8214;DHT22;4148;47.974;7.824;2024-01-15T15:36:36;1.80;99.90
8214;DHT22;4148;47.974;7.824;2024-01-15T15:39:05;1.80;1.00
8214;DHT22;4148;47.974;7.824;2024-01-15T15:41:33;1.80;1.00
8214;DHT22;4148;47.974;7.824;2024-01-15T15:44:00;1.80;1.00
8214;DHT22;4148;47.974;7.824;2024-01-15T15:46:28;1.80;1.00
8214;DHT22;4148;47.974;7.824;2024-01-15T15:48:57;1.80;99.90
8214;DHT22;4148;47.974;7.824;2024-01-15T15:51:26;1.80;65.70
8214;DHT22;4148;47.974;7.824;2024-01-15T15:53:53;1.80;99.90
8214;DHT22;4148;47.974;7.824;2024-01-15T15:56:22;1.70;1.00
8214;DHT22;4148;47.974;7.824;2024-01-15T15:58:50;1.70;99.90
8214;DHT22;4148;47.974;7.824;2024-01-15T16:01:17;1.70;1.00
8214;DHT22;4148;47.974;7.824;2024-01-15T16:03:45;1.70;99.90
8214;DHT22;4148;47.974;7.824;2024-01-15T16:06:15;1.70;99.90
8214;DHT22;4148;47.974;7.824;2024-01-15T16:08:43;1.70;5.90
8214;DHT22;4148;47.974;7.824;2024-01-15T16:11:11;1.70;99.90
8214;DHT22;4148;47.974;7.824;2024-01-15T16:13:39;1.60;99.90
8214;DHT22;4148;47.974;7.824;2024-01-15T16:16:07;1.60;99.90
8214;DHT22;4148;47.974;7.824;2024-01-15T16:18:55;1.60;48.80
8214;DHT22;4148;47.974;7.824;2024-01-15T16:21:44;1.50;99.90
8214;DHT22;4148;47.974;7.824;2024-01-15T16:24:32;1.50;1.00
8214;DHT22;4148;47.974;7.824;2024-01-15T16:27:16;1.50;99.90
8214;DHT22;4148;47.974;7.824;2024-01-15T16:29:44;1.60;1.00
8214;DHT22;4148;47.974;7.824;2024-01-15T16:32:12;1.50;99.90